Lundstrom Heights, Iowa
Current Conditions -  °F | °C
As of 11:55 PM on Saturday 20 Dec 2014 (Local Time) from KIKV Reporting Station
Haze Haze  
Wind Chill: 30°   Ceiling: 300
Heat Index: 36°   Visibility: 1.7mi
Dew Point: 36°   Wind: 7mph
Humidity: 100%   Direction: 160°SSE
Pressure: 30.09"   Gusts: NA
Location:  41.7257°N, 93.588°W
Report Text: KIKV 210555Z AUTO 16006KT 1 3/4SM BR OVC003 02/02 A3009 RMK AO2
Loading
Personal Weather Stations






























Interactive Weather Map New forecast layout! Learn more

10-Day Weather Forecast

Advertisements
Track Severe Weather on mobile